createdAt,value
2022-10-26T00:03:57.024Z,10.50
2022-10-26T00:08:58.967Z,10.50
2022-10-26T00:14:00.761Z,10.50
2022-10-26T00:19:02.544Z,10.50
2022-10-26T00:24:04.541Z,10.40
2022-10-26T00:29:06.936Z,10.40
2022-10-26T00:34:11.681Z,10.40
2022-10-26T00:39:13.715Z,10.30
2022-10-26T00:44:43.411Z,10.30
2022-10-26T00:49:48.425Z,10.20
2022-10-26T00:54:51.465Z,10.20
2022-10-26T00:59:55.926Z,10.20
2022-10-26T01:04:58.315Z,10.10
2022-10-26T01:10:01.271Z,10.10
2022-10-26T01:15:03.390Z,10.10
2022-10-26T01:20:23.800Z,10.00
2022-10-26T01:26:03.320Z,9.90
2022-10-26T01:31:08.669Z,9.90
2022-10-26T01:36:20.993Z,9.90
2022-10-26T01:41:35.645Z,9.90
2022-10-26T01:46:42.462Z,9.80
2022-10-26T01:51:45.446Z,9.80
2022-10-26T01:56:54.692Z,9.70
2022-10-26T02:02:13.847Z,9.70
2022-10-26T02:07:37.424Z,9.70
2022-10-26T02:12:45.494Z,9.70
2022-10-26T02:17:56.974Z,9.70
2022-10-26T02:23:02.760Z,9.60
2022-10-26T02:28:09.117Z,9.60
2022-10-26T02:33:13.615Z,9.50
2022-10-26T02:38:18.682Z,9.50
2022-10-26T02:43:23.253Z,9.50
2022-10-26T02:48:25.206Z,9.40
2022-10-26T02:53:37.051Z,9.40
2022-10-26T02:58:44.572Z,9.40
2022-10-26T03:03:46.404Z,9.40
2022-10-26T03:08:48.354Z,9.40
2022-10-26T03:13:50.175Z,9.40
2022-10-26T03:18:51.932Z,9.40
2022-10-26T03:23:53.792Z,9.40
2022-10-26T03:28:55.524Z,9.40
2022-10-26T03:33:57.246Z,9.40
2022-10-26T03:38:59.146Z,9.40
2022-10-26T03:44:00.876Z,9.40
2022-10-26T03:49:02.622Z,9.40
2022-10-26T03:54:05.035Z,9.30
2022-10-26T03:59:06.943Z,9.30
2022-10-26T04:04:08.838Z,9.30
2022-10-26T04:09:10.668Z,9.20
2022-10-26T04:14:12.425Z,9.20
2022-10-26T04:19:14.348Z,9.10
2022-10-26T04:24:16.249Z,9.20
2022-10-26T04:29:18.368Z,9.20
2022-10-26T04:34:20.651Z,9.20
2022-10-26T04:39:22.764Z,9.20
2022-10-26T04:44:24.589Z,9.20
2022-10-26T04:49:26.391Z,9.20
2022-10-26T04:54:28.528Z,9.20
2022-10-26T04:59:30.428Z,9.10
2022-10-26T05:04:32.176Z,9.10
2022-10-26T05:09:33.923Z,9.10
2022-10-26T05:14:35.720Z,9.10
2022-10-26T05:19:37.780Z,9.10
2022-10-26T05:24:39.506Z,9.10
2022-10-26T05:29:41.239Z,9.00
2022-10-26T05:34:43.022Z,9.00
2022-10-26T05:39:44.834Z,8.90
2022-10-26T05:44:46.669Z,8.90
2022-10-26T05:49:48.856Z,8.90
2022-10-26T05:54:50.585Z,8.90
2022-10-26T05:59:52.710Z,8.80
2022-10-26T06:05:02.491Z,8.80
2022-10-26T06:10:04.855Z,8.80
2022-10-26T06:15:07.308Z,8.80
2022-10-26T06:20:28.159Z,8.70
2022-10-26T06:25:37.085Z,8.70
2022-10-26T06:30:40.945Z,8.70
2022-10-26T06:35:45.556Z,8.70
2022-10-26T06:40:51.312Z,8.70
2022-10-26T06:46:07.937Z,8.70
2022-10-26T06:51:15.006Z,8.70
2022-10-26T06:56:17.662Z,8.70
2022-10-26T07:01:19.911Z,8.80
2022-10-26T07:06:21.739Z,8.90
2022-10-26T07:11:23.526Z,8.90
2022-10-26T07:16:25.468Z,9.00
2022-10-26T07:21:28.206Z,9.00
2022-10-26T07:26:29.974Z,9.10
2022-10-26T07:31:32.070Z,9.20
2022-10-26T07:36:36.786Z,9.30
2022-10-26T07:41:38.572Z,9.40
2022-10-26T07:46:40.458Z,9.50
2022-10-26T07:51:42.272Z,9.60
2022-10-26T07:56:44.120Z,9.70
2022-10-26T08:01:46.084Z,9.80
2022-10-26T08:06:48.743Z,9.90
2022-10-26T08:11:50.516Z,10.00
2022-10-26T08:16:52.675Z,10.10
2022-10-26T08:21:55.364Z,10.30
2022-10-26T08:26:57.103Z,10.40
2022-10-26T08:31:58.847Z,10.60
2022-10-26T08:37:00.602Z,10.70
2022-10-26T08:42:09.222Z,10.80
2022-10-26T08:47:15.896Z,11.00
2022-10-26T08:52:22.394Z,11.10
2022-10-26T08:57:35.536Z,11.40
2022-10-26T09:02:37.419Z,11.70
2022-10-26T09:07:45.545Z,11.90
2022-10-26T09:12:53.232Z,12.00
2022-10-26T09:18:20.130Z,12.20
2022-10-26T09:23:42.075Z,12.30
2022-10-26T09:28:46.798Z,12.50
2022-10-26T09:33:48.849Z,12.70
2022-10-26T09:39:11.509Z,12.90
2022-10-26T09:44:27.333Z,13.10
2022-10-26T09:49:44.575Z,13.30
2022-10-26T09:54:46.341Z,13.50
2022-10-26T09:59:50.761Z,13.70
2022-10-26T10:04:52.673Z,14.00
2022-10-26T10:10:17.355Z,14.20
2022-10-26T10:15:24.764Z,14.40
2022-10-26T10:20:34.112Z,14.50
2022-10-26T10:25:37.028Z,14.60
2022-10-26T10:30:39.024Z,14.80
2022-10-26T10:35:49.768Z,15.00
2022-10-26T10:41:00.191Z,15.10
2022-10-26T10:46:02.034Z,15.30
2022-10-26T10:51:12.492Z,15.40
2022-10-26T10:56:32.878Z,15.60
2022-10-26T11:01:40.785Z,15.70
2022-10-26T11:06:45.005Z,15.80
2022-10-26T11:12:19.462Z,15.90
2022-10-26T11:17:30.509Z,15.90
2022-10-26T11:22:41.303Z,16.10
2022-10-26T11:27:55.324Z,16.10
2022-10-26T11:33:05.976Z,16.20
2022-10-26T11:38:28.218Z,16.30
2022-10-26T11:43:47.947Z,16.30
2022-10-26T11:49:22.850Z,16.40
2022-10-26T11:54:31.988Z,16.50
2022-10-26T11:59:39.080Z,16.50
2022-10-26T12:04:44.764Z,16.60
2022-10-26T12:09:46.534Z,16.60
2022-10-26T12:15:11.200Z,16.70
2022-10-26T12:20:52.825Z,16.70
2022-10-26T12:26:37.425Z,16.80
2022-10-26T12:31:39.145Z,16.90
2022-10-26T12:36:56.040Z,16.90
2022-10-26T12:42:09.537Z,17.00
2022-10-26T12:47:31.222Z,17.30
2022-10-26T12:53:04.803Z,17.70
2022-10-26T12:58:32.575Z,17.80
2022-10-26T13:04:09.089Z,18.00
2022-10-26T13:09:22.309Z,18.20
2022-10-26T13:14:32.490Z,18.40
2022-10-26T13:19:49.171Z,18.80
2022-10-26T13:25:01.427Z,19.10
2022-10-26T13:30:09.293Z,19.30
2022-10-26T13:35:15.699Z,19.40
2022-10-26T13:40:26.728Z,19.40
2022-10-26T13:45:31.704Z,19.70
2022-10-26T13:50:46.562Z,19.90
2022-10-26T13:56:04.527Z,20.00
2022-10-26T14:01:09.390Z,19.70
2022-10-26T14:06:29.077Z,19.40
2022-10-26T14:11:42.818Z,19.00
2022-10-26T14:16:46.667Z,18.80
2022-10-26T14:21:50.593Z,18.50
2022-10-26T14:26:52.670Z,18.40
2022-10-26T14:31:55.162Z,18.30
2022-10-26T14:37:03.819Z,18.20
2022-10-26T14:42:25.087Z,18.00
2022-10-26T14:47:35.414Z,17.90
2022-10-26T14:52:37.740Z,17.90
2022-10-26T14:57:42.920Z,17.70
2022-10-26T15:02:47.747Z,17.50
2022-10-26T15:07:51.093Z,17.50
2022-10-26T15:12:53.632Z,17.40
2022-10-26T15:17:58.428Z,17.30
2022-10-26T15:23:02.885Z,17.20
2022-10-26T15:28:30.968Z,17.10
2022-10-26T15:33:34.612Z,17.00
2022-10-26T15:38:36.505Z,17.00
2022-10-26T15:43:38.309Z,16.90
2022-10-26T15:48:40.538Z,16.80
2022-10-26T15:53:42.585Z,16.70
2022-10-26T15:58:45.194Z,16.60
2022-10-26T16:03:47.675Z,16.50
2022-10-26T16:08:52.913Z,16.30
2022-10-26T16:13:57.141Z,16.20
2022-10-26T16:19:25.374Z,16.10
2022-10-26T16:24:23.394Z,16.00
2022-10-26T16:29:25.213Z,15.90
2022-10-26T16:34:27.344Z,15.80
2022-10-26T16:39:29.204Z,15.80
2022-10-26T16:44:31.120Z,15.80
2022-10-26T16:49:33.018Z,15.80
2022-10-26T16:54:35.099Z,15.80
2022-10-26T16:59:37.245Z,15.80
2022-10-26T17:04:39.040Z,15.80
2022-10-26T17:09:41.339Z,15.70
2022-10-26T17:14:43.102Z,15.70
2022-10-26T17:19:45.288Z,15.70
2022-10-26T17:24:47.115Z,15.60
2022-10-26T17:29:49.167Z,15.70
2022-10-26T17:34:50.952Z,15.60
2022-10-26T17:39:52.705Z,15.60
2022-10-26T17:44:54.519Z,15.70
2022-10-26T17:49:57.072Z,15.60
2022-10-26T17:55:01.765Z,15.60
2022-10-26T18:00:05.162Z,15.60
2022-10-26T18:05:31.403Z,15.60
2022-10-26T18:10:37.941Z,15.60
2022-10-26T18:15:40.219Z,15.60
2022-10-26T18:20:42.415Z,15.60
2022-10-26T18:25:44.344Z,15.60
2022-10-26T18:30:46.124Z,15.60
2022-10-26T18:35:47.866Z,15.70
2022-10-26T18:40:53.693Z,15.70
2022-10-26T18:46:07.127Z,15.70
2022-10-26T18:51:20.001Z,15.70
2022-10-26T18:56:25.058Z,15.70
2022-10-26T19:01:32.289Z,15.70
2022-10-26T19:06:40.177Z,15.70
2022-10-26T19:11:44.754Z,15.70
2022-10-26T19:16:48.080Z,15.60
2022-10-26T19:21:50.505Z,15.60
2022-10-26T19:26:54.107Z,15.60
2022-10-26T19:31:55.895Z,15.50
2022-10-26T19:36:57.654Z,15.40
2022-10-26T19:41:59.484Z,15.40
2022-10-26T19:47:01.342Z,15.30
2022-10-26T19:52:03.240Z,15.10
2022-10-26T19:57:05.034Z,15.00
2022-10-26T20:02:07.971Z,14.90
2022-10-26T20:07:09.801Z,14.80
2022-10-26T20:12:12.695Z,14.70
2022-10-26T20:17:14.534Z,14.60
2022-10-26T20:22:16.309Z,14.50
2022-10-26T20:27:18.084Z,14.40
2022-10-26T20:32:19.865Z,14.30
2022-10-26T20:37:21.924Z,14.20
2022-10-26T20:42:25.863Z,14.20
2022-10-26T20:47:27.982Z,14.10
2022-10-26T20:52:55.318Z,14.10
2022-10-26T20:58:11.462Z,14.10
2022-10-26T21:03:13.294Z,14.00
2022-10-26T21:08:15.227Z,14.00
2022-10-26T21:13:17.419Z,14.00
2022-10-26T21:18:19.264Z,13.90
2022-10-26T21:23:21.016Z,14.00
2022-10-26T21:28:24.925Z,13.90
2022-10-26T21:33:31.923Z,13.80
2022-10-26T21:38:34.431Z,13.80
2022-10-26T21:43:38.041Z,13.70
2022-10-26T21:48:41.092Z,13.60
2022-10-26T21:53:43.502Z,13.60
2022-10-26T21:58:45.895Z,13.60
2022-10-26T22:03:48.443Z,13.50
2022-10-26T22:08:54.197Z,13.50
2022-10-26T22:13:56.014Z,13.40
2022-10-26T22:19:02.178Z,13.40
2022-10-26T22:24:04.478Z,13.30
2022-10-26T22:29:06.461Z,13.30
2022-10-26T22:34:14.199Z,13.20
2022-10-26T22:39:17.744Z,13.10
2022-10-26T22:44:19.695Z,13.10
2022-10-26T22:49:21.719Z,13.00
2022-10-26T22:54:23.474Z,12.90
2022-10-26T22:59:25.261Z,12.90
2022-10-26T23:04:27.013Z,12.80
2022-10-26T23:09:28.743Z,12.80
2022-10-26T23:14:30.513Z,12.70
2022-10-26T23:19:32.282Z,12.70
2022-10-26T23:24:34.056Z,12.70
2022-10-26T23:29:35.827Z,12.60
2022-10-26T23:34:37.623Z,12.60
2022-10-26T23:39:39.704Z,12.60
2022-10-26T23:44:41.455Z,12.60
2022-10-26T23:49:43.208Z,12.60
2022-10-26T23:54:44.961Z,12.50
2022-10-26T23:59:46.827Z,12.50
